Coral — UBKJ — position and weather

sailwx.info

Track history (hours):
 
Tides and Currents Weather Stations Pressure Air Temp Water Temp Dewpoint Dewpoint Depression Visibility Wind Speed Wind Dir Waves Ship Positions

Coral

Last reported at 2017-Sep-24 12:00 UTC. Time now 2017-Oct-19 02:17 UTC.
Position N 45°32' E 036°44'.
Warning: this ship's position is 24 days out of date.

Length 108 m; draft 2.6 m.

Type: Ship. MMSI: 273427610.

Date/timePositionNaut miles runAvg speedWind from/ knotsBaromVisibWave heightAir tempDewpointWater temp
2017-Sep-24 12:00N 45°32' E 036°44'4 8.3
2017-Sep-24 11:30N 45°28' E 036°42'4 8.1
2017-Sep-24 11:00N 45°24' E 036°41'4 7.4
2017-Sep-24 10:30N 45°21' E 036°39'4 7.4
2017-Sep-24 10:00N 45°19' E 036°34'4 7.6
2017-Sep-24 09:30N 45°18' E 036°29'2 3.1
2017-Sep-24 09:00N 45°16' E 036°29'1 2.6
2017-Sep-24 08:30N 45°15' E 036°29'1 2.1
2017-Sep-24 08:00N 45°14' E 036°30'0 0.0
2017-Sep-24 07:24N 45°14' E 036°30'0 0.1
2017-Sep-24 07:00N 45°14' E 036°30'0 0.0
2017-Sep-24 06:30N 45°14' E 036°30'0 0.0
2017-Sep-24 06:00N 45°14' E 036°30'0 0.0
2017-Sep-24 05:30N 45°14' E 036°30'0 0.0
2017-Sep-24 05:00N 45°14' E 036°30'0 0.0
2017-Sep-24 04:30N 45°14' E 036°30'1 2.3
2017-Sep-24 04:00N 45°13' E 036°29'  
2017-Sep-16 09:46N 40°50' E 029°15'0 0.0
2017-Sep-16 09:28N 40°50' E 029°15'  
Track history (hours):
 
Tides and Currents Weather Stations Pressure Air Temp Water Temp Dewpoint Dewpoint Depression Visibility Wind Speed Wind Dir Waves Ship Positions

Coral

Last reported at 2017-Sep-24 12:00 UTC. Time now 2017-Oct-19 02:17 UTC.
Position N 45°32' E 036°44'.
Warning: this ship's position is 24 days out of date.

Length 108 m; draft 2.6 m.

Type: Ship. MMSI: 273427610.

Date/timePositionNaut miles runAvg speedWind from/ knotsBaromVisibWave heightAir tempDewpointWater temp
2017-Sep-24 12:00N 45°32' E 036°44'4 8.3
2017-Sep-24 11:30N 45°28' E 036°42'4 8.1
2017-Sep-24 11:00N 45°24' E 036°41'4 7.4
2017-Sep-24 10:30N 45°21' E 036°39'4 7.4
2017-Sep-24 10:00N 45°19' E 036°34'4 7.6
2017-Sep-24 09:30N 45°18' E 036°29'2 3.1
2017-Sep-24 09:00N 45°16' E 036°29'1 2.6
2017-Sep-24 08:30N 45°15' E 036°29'1 2.1
2017-Sep-24 08:00N 45°14' E 036°30'0 0.0
2017-Sep-24 07:24N 45°14' E 036°30'0 0.1
2017-Sep-24 07:00N 45°14' E 036°30'0 0.0
2017-Sep-24 06:30N 45°14' E 036°30'0 0.0
2017-Sep-24 06:00N 45°14' E 036°30'0 0.0
2017-Sep-24 05:30N 45°14' E 036°30'0 0.0
2017-Sep-24 05:00N 45°14' E 036°30'0 0.0
2017-Sep-24 04:30N 45°14' E 036°30'1 2.3
2017-Sep-24 04:00N 45°13' E 036°29'  
2017-Sep-16 09:46N 40°50' E 029°15'0 0.0
2017-Sep-16 09:28N 40°50' E 029°15'  

Dump ship's entire track history